Time;durP1;ratioP1;P1;durP2;ratioP2;P2;SDS_P1;SDS_P2;PMS_P1;PMS_P2;Temp;Humidity;BMP_temperature;BMP_pressure;BME280_temperature;BME280_humidity;BME280_pressure;Samples;Min_cycle;Max_cycle;Signal;HPM_P1;HPM_P2
2021/01/15 00:01:01;;;;;;;14.80;2.50;;;;;;;7.63;100.00;102854.38;5070417;28;20171;-65
2021/01/15 00:03:27;;;;;;;15.00;1.95;;;;;;;7.62;100.00;102849.97;5070360;28;20398;-65
2021/01/15 00:05:53;;;;;;;11.98;2.05;;;;;;;7.61;100.00;102861.88;5070189;28;20050;-65
2021/01/15 00:08:18;;;;;;;12.00;1.80;;;;;;;7.59;100.00;102866.63;5070196;28;20467;-65
2021/01/15 00:10:44;;;;;;;15.05;1.88;;;;;;;7.59;100.00;102874.78;5070103;28;20036;-65
2021/01/15 00:13:10;;;;;;;10.88;1.90;;;;;;;7.56;100.00;102863.25;5070023;28;20043;-65
2021/01/15 00:15:35;;;;;;;11.35;2.00;;;;;;;7.55;100.00;102857.97;5070202;28;20483;-65
2021/01/15 00:18:01;;;;;;;14.18;2.25;;;;;;;7.55;100.00;102861.53;5073108;28;20098;-65
2021/01/15 00:20:27;;;;;;;12.27;2.20;;;;;;;7.55;100.00;102858.81;5073647;28;20043;-65
2021/01/15 00:22:52;;;;;;;12.57;1.70;;;;;;;7.56;100.00;102860.53;5073667;28;20059;-65
2021/01/15 00:25:18;;;;;;;17.95;2.15;;;;;;;7.56;100.00;102863.25;5073704;28;20045;-65
2021/01/15 00:27:44;;;;;;;12.20;1.55;;;;;;;7.55;100.00;102864.25;5073584;28;20127;-65
2021/01/15 00:30:10;;;;;;;14.30;1.90;;;;;;;7.55;100.00;102875.16;5073684;28;20040;-65
2021/01/15 00:32:36;;;;;;;10.40;1.95;;;;;;;7.56;100.00;102865.13;5073785;28;20025;-65
2021/01/15 00:35:04;;;;;;;13.43;2.15;;;;;;;7.57;100.00;102866.81;5073411;28;20504;-65
2021/01/15 00:37:30;;;;;;;13.35;2.15;;;;;;;7.57;100.00;102864.94;5073566;28;20055;-65
2021/01/15 00:39:55;;;;;;;13.25;2.63;;;;;;;7.57;100.00;102855.94;5073432;28;20041;-65
2021/01/15 00:42:21;;;;;;;12.93;2.15;;;;;;;7.58;100.00;102863.06;5073303;28;20036;-65
2021/01/15 00:44:46;;;;;;;15.40;1.95;;;;;;;7.57;100.00;102856.78;5073599;28;20040;-65
2021/01/15 00:47:12;;;;;;;14.52;1.98;;;;;;;7.59;100.00;102855.75;5073595;28;20111;-65
2021/01/15 00:49:38;;;;;;;13.60;2.35;;;;;;;7.58;100.00;102857.63;5073147;28;20059;-65
2021/01/15 00:52:04;;;;;;;16.30;2.25;;;;;;;7.58;100.00;102857.63;5073298;28;20063;-65
2021/01/15 00:54:29;;;;;;;16.05;2.38;;;;;;;7.56;100.00;102860.53;5073433;28;20110;-65
2021/01/15 00:56:59;;;;;;;9.52;2.22;;;;;;;7.56;100.00;102871.41;5073004;28;20399;-65
2021/01/15 00:59:24;;;;;;;14.65;1.92;;;;;;;7.55;100.00;102869.69;5073465;28;20486;-65
2021/01/15 01:01:50;;;;;;;11.77;1.90;;;;;;;7.56;100.00;102871.41;5073255;28;20052;-65
2021/01/15 01:04:16;;;;;;;11.60;2.75;;;;;;;7.57;100.00;102878.53;5072929;28;20040;-65
2021/01/15 01:06:41;;;;;;;14.13;2.03;;;;;;;7.59;100.00;102880.22;5072956;28;20039;-65
2021/01/15 01:09:07;;;;;;;15.00;2.40;;;;;;;7.59;100.00;102880.22;5073003;28;20043;-65
2021/01/15 01:11:33;;;;;;;17.50;2.20;;;;;;;7.59;100.00;102872.91;5054721;28;20401;-65
2021/01/15 01:14:00;;;;;;;13.38;2.35;;;;;;;7.60;100.00;102871.03;5054852;28;20040;-65
2021/01/15 01:16:26;;;;;;;9.32;1.73;;;;;;;7.60;100.00;102865.59;5072843;28;20468;-65
2021/01/15 01:18:53;;;;;;;15.07;2.50;;;;;;;7.60;100.00;102866.47;5072690;28;20051;-65
2021/01/15 01:21:19;;;;;;;14.00;2.13;;;;;;;7.60;100.00;102868.31;5054981;28;20040;-65
2021/01/15 01:23:45;;;;;;;17.17;2.67;;;;;;;7.59;100.00;102880.22;5072720;28;20064;-65
2021/01/15 01:26:11;;;;;;;23.25;3.60;;;;;;;7.59;100.00;102885.66;5072590;28;20483;-65
2021/01/15 01:28:37;;;;;;;11.25;2.63;;;;;;;7.57;100.00;102904.88;5072330;28;20040;-65
2021/01/15 01:31:03;;;;;;;9.18;2.38;;;;;;;7.55;100.00;102902.34;5072546;28;20052;-65
2021/01/15 01:33:29;;;;;;;23.88;3.53;;;;;;;7.55;100.00;102907.78;5072824;28;20040;-65
2021/01/15 01:35:54;;;;;;;19.38;2.13;;;;;;;7.55;100.00;102901.50;5054529;28;20083;-65
2021/01/15 01:38:20;;;;;;;12.15;2.78;;;;;;;7.55;100.00;102906.94;5072516;28;20044;-66
2021/01/15 01:40:46;;;;;;;19.77;2.05;;;;;;;7.56;100.00;102904.03;5072127;28;20063;-65
2021/01/15 01:43:12;;;;;;;13.77;2.22;;;;;;;7.56;100.00;102901.31;5072438;28;20033;-66
2021/01/15 01:45:38;;;;;;;15.20;2.53;;;;;;;7.56;100.00;102904.03;5072651;28;20036;-65
2021/01/15 01:48:05;;;;;;;11.50;2.30;;;;;;;7.57;100.00;102905.72;5072055;28;20037;-65
2021/01/15 01:50:31;;;;;;;10.85;2.05;;;;;;;7.59;100.00;102907.44;5072158;28;20036;-65
2021/01/15 01:52:59;;;;;;;15.27;3.03;;;;;;;7.57;100.00;102905.72;5072257;28;20032;-65
2021/01/15 01:55:25;;;;;;;17.45;2.70;;;;;;;7.59;100.00;102904.72;5071744;28;20093;-65
2021/01/15 01:57:51;;;;;;;12.13;2.83;;;;;;;7.59;100.00;102908.28;5072126;28;20041;-65
2021/01/15 02:00:17;;;;;;;10.95;2.28;;;;;;;7.60;100.00;102917.28;5072093;28;20047;-65
2021/01/15 02:02:43;;;;;;;14.23;2.53;;;;;;;7.60;100.00;102920.00;5071771;28;20081;-65
2021/01/15 02:05:09;;;;;;;20.20;3.05;;;;;;;7.62;100.00;102917.97;5071799;28;20036;-65
2021/01/15 02:07:35;;;;;;;18.35;3.10;;;;;;;7.62;100.00;102912.53;5072004;28;20099;-65
2021/01/15 02:10:11;;;;;;;15.63;2.35;;;;;;;7.63;100.00;102930.53;5071526;28;20041;-65
2021/01/15 02:12:49;;;;;;;12.75;2.55;;;;;;;7.61;100.00;102922.53;5071838;28;20036;-65
2021/01/15 02:15:20;;;;;;;15.10;2.35;;;;;;;7.63;100.00;102941.41;5071813;28;20040;-65
2021/01/15 02:17:51;;;;;;;14.18;2.67;;;;;;;7.62;100.00;102937.00;5071447;28;20032;-66
2021/01/15 02:20:25;;;;;;;17.95;2.92;;;;;;;7.63;100.00;102941.41;5071522;28;20028;-65
2021/01/15 02:22:54;;;;;;;21.38;3.40;;;;;;;7.62;100.00;102956.03;5071557;28;20059;-65
2021/01/15 02:25:48;;;;;;;13.70;3.03;;;;;;;7.62;100.00;102956.03;5071824;28;20112;-65
2021/01/15 02:28:55;;;;;;;23.20;4.15;;;;;;;7.64;100.00;102960.31;5054155;28;20102;-65
2021/01/15 02:31:27;;;;;;;18.67;2.40;;;;;;;7.67;100.00;102959.13;5071376;28;20040;-65
2021/01/15 02:34:22;;;;;;;17.63;3.20;;;;;;;7.69;100.00;102959.78;5071236;28;20483;-65
2021/01/15 02:37:03;;;;;;;15.43;3.65;;;;;;;7.72;100.00;102962.16;5071342;28;20042;-65
2021/01/15 02:39:41;;;;;;;15.38;2.72;;;;;;;7.73;100.00;102966.56;5070459;28;20047;-65
2021/01/15 02:42:09;;;;;;;17.08;3.67;;;;;;;7.75;100.00;102973.53;5071296;28;20395;-65
2021/01/15 02:44:38;;;;;;;15.75;3.70;;;;;;;7.77;100.00;102976.09;5071073;28;20036;-65
2021/01/15 02:47:06;;;;;;;13.20;3.25;;;;;;;7.78;100.00;102983.22;5071345;28;20543;-65
2021/01/15 02:49:34;;;;;;;12.85;3.00;;;;;;;7.79;100.00;102991.22;5071108;28;20029;-65
2021/01/15 02:52:00;;;;;;;16.10;4.00;;;;;;;7.81;100.00;102988.34;5071056;28;20040;-65
2021/01/15 02:54:26;;;;;;;17.58;3.83;;;;;;;7.80;100.00;102989.34;5070845;28;20044;-66
2021/01/15 02:56:51;;;;;;;12.07;4.13;;;;;;;7.81;100.00;102978.31;5052974;28;20072;-65
2021/01/15 02:59:17;;;;;;;12.55;3.92;;;;;;;7.82;100.00;102981.88;5070751;28;20068;-65
2021/01/15 03:02:08;;;;;;;12.27;3.03;;;;;;;7.81;100.00;102972.03;5052897;28;20036;-65
2021/01/15 03:04:55;;;;;;;14.48;3.15;;;;;;;7.80;100.00;102979.31;5071017;28;20036;-65
2021/01/15 03:07:23;;;;;;;16.75;3.13;;;;;;;7.81;100.00;102977.47;5071090;28;20056;-65
2021/01/15 03:09:52;;;;;;;18.40;2.80;;;;;;;7.80;100.00;102973.03;5052664;28;20039;-65
2021/01/15 03:12:19;;;;;;;13.90;2.45;;;;;;;7.80;100.00;102975.75;5070995;28;20046;-65
2021/01/15 03:14:46;;;;;;;14.43;2.72;;;;;;;7.79;100.00;102980.34;5070758;28;20064;-65
2021/01/15 03:17:13;;;;;;;16.63;3.63;;;;;;;7.77;100.00;102976.94;5070688;28;20068;-65
2021/01/15 03:19:39;;;;;;;14.52;3.45;;;;;;;7.76;100.00;102974.38;5070656;28;20074;-65
2021/01/15 03:22:14;;;;;;;10.98;2.72;;;;;;;7.75;100.00;102964.53;5070846;28;20036;-65
2021/01/15 03:24:58;;;;;;;16.90;3.67;;;;;;;7.72;100.00;102983.91;5070371;28;20080;-65
2021/01/15 03:27:45;;;;;;;16.13;2.95;;;;;;;7.69;100.00;103000.59;5070835;28;20086;-65
2021/01/15 03:30:15;;;;;;;18.55;3.05;;;;;;;7.67;100.00;102986.31;5070571;28;20039;-65
2021/01/15 03:32:41;;;;;;;10.05;3.22;;;;;;;7.66;100.00;102995.50;5070352;28;20051;-65
2021/01/15 03:35:07;;;;;;;15.45;2.70;;;;;;;7.63;100.00;102987.66;5070518;28;20127;-65
2021/01/15 03:37:36;;;;;;;14.00;3.35;;;;;;;7.60;100.00;102985.28;5052599;28;20398;-65
2021/01/15 03:40:03;;;;;;;19.02;3.40;;;;;;;7.59;100.00;102987.16;5070427;28;20036;-65
2021/01/15 03:42:29;;;;;;;17.75;3.72;;;;;;;7.56;100.00;102988.34;5070589;28;20040;-65
2021/01/15 03:44:54;;;;;;;20.80;3.70;;;;;;;7.54;100.00;103003.97;5070547;28;20044;-65
2021/01/15 03:47:20;;;;;;;13.63;3.80;;;;;;;7.55;100.00;103004.84;5070292;28;20037;-66
2021/01/15 03:49:46;;;;;;;17.73;3.42;;;;;;;7.52;100.00;103006.03;5070340;28;20040;-65
2021/01/15 03:52:12;;;;;;;21.27;3.42;;;;;;;7.51;100.00;103015.19;5073900;28;20047;-65
2021/01/15 03:54:37;;;;;;;21.08;3.80;;;;;;;7.50;100.00;103024.38;5074327;28;20040;-66
2021/01/15 03:57:04;;;;;;;21.88;3.53;;;;;;;7.49;100.00;103022.69;5074414;28;20503;-65
2021/01/15 03:59:30;;;;;;;17.30;3.05;;;;;;;7.47;100.00;103022.00;5074350;28;20074;-65
2021/01/15 04:01:56;;;;;;;12.93;2.67;;;;;;;7.47;100.00;103035.59;5074084;28;20111;-65
2021/01/15 04:04:21;;;;;;;11.93;2.70;;;;;;;7.46;100.00;103033.91;5056173;28;20500;-65
2021/01/15 04:06:47;;;;;;;16.25;2.72;;;;;;;7.46;100.00;103044.78;5056253;28;20040;-65
2021/01/15 04:09:12;;;;;;;11.52;2.67;;;;;;;7.47;100.00;103040.19;5073893;28;20043;-65
2021/01/15 04:11:38;;;;;;;12.43;3.08;;;;;;;7.47;100.00;103035.59;5074214;28;20047;-65
2021/01/15 04:14:03;;;;;;;16.02;2.85;;;;;;;7.47;100.00;103046.47;5074143;28;20079;-65
2021/01/15 04:16:29;;;;;;;14.35;2.17;;;;;;;7.46;100.00;103038.47;5055906;28;20040;-65
2021/01/15 04:18:54;;;;;;;20.30;2.85;;;;;;;7.44;100.00;103035.91;5073889;28;20044;-65
2021/01/15 04:21:20;;;;;;;13.13;2.53;;;;;;;7.42;100.00;103027.06;5073926;28;20097;-65
2021/01/15 04:23:45;;;;;;;14.07;2.05;;;;;;;7.41;100.00;103025.38;5073549;28;20059;-65
2021/01/15 04:26:18;;;;;;;13.55;2.22;;;;;;;7.40;100.00;103018.22;5073840;28;20040;-65
2021/01/15 04:28:44;;;;;;;15.15;2.38;;;;;;;7.38;100.00;103028.44;5073741;28;20038;-65
2021/01/15 04:31:15;;;;;;;7.72;2.22;;;;;;;7.37;100.00;103017.72;5073617;28;20048;-65
2021/01/15 04:33:41;;;;;;;10.02;1.65;;;;;;;7.34;100.00;103013.47;5073639;28;20355;-65
2021/01/15 04:36:07;;;;;;;5.70;2.22;;;;;;;7.32;100.00;103015.53;5073543;28;20062;-65
2021/01/15 04:38:32;;;;;;;11.32;1.40;;;;;;;7.29;100.00;103015.84;5073729;28;20043;-65
2021/01/15 04:40:58;;;;;;;13.15;1.90;;;;;;;7.28;100.00;103025.00;5073560;28;20045;-65
2021/01/15 04:43:31;;;;;;;10.13;1.85;;;;;;;7.26;100.00;103044.19;5073503;28;20036;-65
2021/01/15 04:45:57;;;;;;;11.93;2.90;;;;;;;7.26;100.00;103054.22;5073404;28;20029;-65
2021/01/15 04:48:26;;;;;;;8.55;1.50;;;;;;;7.25;100.00;103047.09;5073499;28;20028;-65
2021/01/15 04:50:55;;;;;;;13.57;1.20;;;;;;;7.25;100.00;103052.53;5073364;28;20036;-65
2021/01/15 04:53:25;;;;;;;14.88;2.45;;;;;;;7.24;100.00;103039.94;5055119;28;20047;-65
2021/01/15 04:55:57;;;;;;;6.75;1.30;;;;;;;7.23;100.00;103049.13;5073238;28;20045;-65
2021/01/15 04:58:25;;;;;;;9.77;1.30;;;;;;;7.22;100.00;103052.88;5073272;28;20040;-65
2021/01/15 05:00:57;;;;;;;7.50;1.23;;;;;;;7.21;100.00;103049.28;5073102;28;20039;-65
2021/01/15 05:03:24;;;;;;;10.75;1.50;;;;;;;7.18;100.00;103054.22;5072612;28;20040;-65
2021/01/15 05:05:59;;;;;;;5.47;1.00;;;;;;;7.15;100.00;103065.44;5073117;28;20410;-65
2021/01/15 05:08:28;;;;;;;11.32;1.38;;;;;;;7.13;100.00;103059.31;5072800;28;20098;-65
2021/01/15 05:10:55;;;;;;;9.20;1.88;;;;;;;7.12;100.00;103063.03;5072978;28;20028;-65
2021/01/15 05:13:22;;;;;;;7.82;1.00;;;;;;;7.11;100.00;103055.88;5072986;28;20036;-65
2021/01/15 05:15:49;;;;;;;7.10;1.15;;;;;;;7.10;100.00;103056.91;5072690;28;20082;-65
2021/01/15 05:18:16;;;;;;;7.32;1.55;;;;;;;7.08;100.00;103062.50;5073002;28;20044;-65
2021/01/15 05:20:43;;;;;;;6.43;1.10;;;;;;;7.05;100.00;103065.53;5072834;28;20029;-65
2021/01/15 05:23:09;;;;;;;8.10;1.30;;;;;;;7.05;100.00;103075.56;5072356;28;20494;-65
2021/01/15 05:25:40;;;;;;;11.13;2.63;;;;;;;7.00;100.00;103070.63;5072665;28;20426;-65
2021/01/15 05:28:06;;;;;;;8.95;1.50;;;;;;;6.99;100.00;103062.66;5072734;28;20086;-65
2021/01/15 05:30:32;;;;;;;8.60;1.27;;;;;;;6.98;100.00;103077.25;5072372;28;20033;-65
2021/01/15 05:32:59;;;;;;;4.68;1.30;;;;;;;6.95;100.00;103073.00;5072712;28;20402;-65
2021/01/15 05:35:46;;;;;;;7.50;0.95;;;;;;;6.93;100.00;103069.56;5072620;28;20028;-65
2021/01/15 05:38:18;;;;;;;3.60;1.15;;;;;;;6.90;100.00;103069.91;5072603;28;20117;-65
2021/01/15 05:40:51;;;;;;;7.20;1.38;;;;;;;6.88;100.00;103070.06;5072553;28;20040;-65
2021/01/15 05:43:27;;;;;;;10.20;1.33;;;;;;;6.87;100.00;103075.66;5072392;28;20029;-65
2021/01/15 05:46:09;;;;;;;7.30;1.33;;;;;;;6.83;100.00;103075.16;5072185;28;20487;-65
2021/01/15 05:48:47;;;;;;;7.50;1.17;;;;;;;6.80;100.00;103080.91;5072292;28;20119;-65
2021/01/15 05:51:33;;;;;;;5.57;1.27;;;;;;;6.78;100.00;103082.94;5072434;28;20093;-65
2021/01/15 05:53:59;;;;;;;7.35;1.15;;;;;;;6.76;100.00;103095.81;5071986;28;20438;-65
2021/01/15 05:56:36;;;;;;;3.60;0.80;;;;;;;6.73;100.00;103093.41;5071980;28;20054;-65
2021/01/15 05:59:04;;;;;;;8.70;1.23;;;;;;;6.71;100.00;103106.31;5072040;28;20145;-65
2021/01/15 06:01:55;;;;;;;8.00;1.27;;;;;;;6.69;100.00;103105.63;5072106;28;20028;-65
2021/01/15 06:04:40;;;;;;;8.63;1.45;;;;;;;6.67;100.00;103118.50;5072034;28;20043;-65
2021/01/15 06:07:08;;;;;;;7.55;1.25;;;;;;;6.65;100.00;103120.53;5071911;28;20474;-65
2021/01/15 06:09:35;;;;;;;7.15;1.55;;;;;;;6.63;100.00;103133.44;5071771;28;20041;-65
2021/01/15 06:12:06;;;;;;;6.97;1.27;;;;;;;6.62;100.00;103127.16;5071864;28;20055;-65
2021/01/15 06:14:32;;;;;;;5.88;1.67;;;;;;;6.60;100.00;103128.34;5070546;28;20044;-65
2021/01/15 06:17:06;;;;;;;3.50;1.17;;;;;;;6.58;100.00;103124.91;5071637;28;20040;-65
2021/01/15 06:19:42;;;;;;;;;;;;;;;6.55;100.00;103133.38;5072015;28;20035;-65
2021/01/15 06:22:25;;;;;;;8.63;1.92;;;;;;;6.53;100.00;103127.25;5071744;28;20003;-65
2021/01/15 06:25:21;;;;;;;4.45;1.20;;;;;;;6.50;100.00;103130.28;5071811;28;20037;-66
2021/01/15 06:27:47;;;;;;;5.22;1.42;;;;;;;6.45;100.00;103130.78;5048869;28;20075;-65
2021/01/15 06:30:19;;;;;;;7.43;1.10;;;;;;;6.43;100.00;103130.09;5071781;28;20386;-65
2021/01/15 06:32:46;;;;;;;5.75;1.17;;;;;;;6.39;100.00;103130.53;5071778;28;20032;-65
2021/01/15 06:35:24;;;;;;;8.88;1.75;;;;;;;6.37;100.00;103132.56;5071487;28;20046;-65
2021/01/15 06:37:57;;;;;;;7.35;2.08;;;;;;;6.33;100.00;103132.03;5071306;28;20074;-65
2021/01/15 06:40:29;;;;;;;9.60;1.45;;;;;;;6.28;100.00;103129.78;5071401;28;20119;-65
2021/01/15 06:42:57;;;;;;;6.20;1.73;;;;;;;6.27;100.00;103122.66;5071293;28;20032;-66
2021/01/15 06:45:23;;;;;;;7.68;1.85;;;;;;;6.25;100.00;103132.84;5071003;28;20037;-65
2021/01/15 06:47:53;;;;;;;4.30;1.33;;;;;;;6.23;100.00;103129.38;5071179;28;20062;-65
2021/01/15 06:50:19;;;;;;;7.03;1.88;;;;;;;6.21;100.00;103131.41;5071205;28;20144;-65
2021/01/15 06:52:49;;;;;;;10.60;2.38;;;;;;;6.20;100.00;103121.56;5070982;28;20123;-65
2021/01/15 06:55:18;;;;;;;6.10;1.65;;;;;;;6.17;100.00;103127.31;5071263;28;20037;-66
2021/01/15 06:57:48;;;;;;;10.10;2.17;;;;;;;6.17;100.00;103138.19;5070960;28;20446;-65
2021/01/15 07:00:21;;;;;;;11.15;1.65;;;;;;;6.14;100.00;103138.50;5070743;28;20044;-65
2021/01/15 07:03:01;;;;;;;7.35;1.75;;;;;;;6.14;100.00;103138.50;5070942;28;20032;-66
2021/01/15 07:05:31;;;;;;;8.43;1.65;;;;;;;6.13;100.00;103147.66;5070787;28;20397;-65
2021/01/15 07:08:00;;;;;;;11.00;4.50;;;;;;;6.11;100.00;103138.81;5070714;28;20470;-65
2021/01/15 07:10:25;;;;;;;11.60;5.05;;;;;;;6.09;100.00;103138.13;5071009;28;20398;-65
2021/01/15 07:12:56;;;;;;;12.13;5.40;;;;;;;6.08;100.00;103144.56;5070945;28;20047;-65
2021/01/15 07:15:26;;;;;;;12.98;8.23;;;;;;;6.06;100.00;103157.41;5070679;28;20036;-66
2021/01/15 07:17:59;;;;;;;13.40;9.05;;;;;;;6.03;100.00;103141.44;5070608;28;20453;-65
2021/01/15 07:20:36;;;;;;;22.98;11.70;;;;;;;5.99;100.00;103142.75;5070761;28;20045;-65
2021/01/15 07:23:13;;;;;;;23.15;13.45;;;;;;;5.94;100.00;103150.53;5070567;28;20520;-65
2021/01/15 07:25:47;;;;;;;23.58;15.07;;;;;;;5.87;100.00;103152.09;5070453;28;20040;-65
2021/01/15 07:28:13;;;;;;;28.95;17.65;;;;;;;5.80;100.00;103168.16;5070693;28;20418;-65
2021/01/15 07:30:38;;;;;;;29.85;19.38;;;;;;;5.71;100.00;103159.06;5070945;28;20111;-65
2021/01/15 07:33:07;;;;;;;33.30;20.25;;;;;;;5.61;100.00;103158.28;5070528;28;20501;-66
2021/01/15 07:35:36;;;;;;;31.83;20.98;;;;;;;5.55;100.00;103163.44;5070375;28;20024;-65
2021/01/15 07:38:13;;;;;;;36.38;21.58;;;;;;;5.49;100.00;103164.91;5070440;28;20390;-65
2021/01/15 07:40:39;;;;;;;34.08;20.73;;;;;;;5.42;100.00;103158.41;5052655;28;20032;-65
2021/01/15 07:43:07;;;;;;;38.03;23.63;;;;;;;5.36;100.00;103159.84;5070944;28;20064;-65
2021/01/15 07:45:39;;;;;;;36.40;23.38;;;;;;;5.31;100.00;103161.31;5070575;28;20040;-65
2021/01/15 07:48:07;;;;;;;34.08;21.50;;;;;;;5.26;100.00;103166.34;5070529;28;20556;-65
2021/01/15 07:50:33;;;;;;;40.85;23.27;;;;;;;5.23;100.00;103169.34;5070215;28;20040;-65
2021/01/15 07:53:16;;;;;;;38.47;23.05;;;;;;;5.18;100.00;103172.50;5070383;28;20437;-65
2021/01/15 07:55:45;;;;;;;36.53;22.85;;;;;;;5.14;100.00;103171.94;5070406;28;20028;-65
2021/01/15 07:58:12;;;;;;;36.67;21.30;;;;;;;5.10;100.00;103175.97;5070275;28;20136;-65
2021/01/15 08:00:39;;;;;;;36.70;21.52;;;;;;;5.07;100.00;103181.69;5070369;28;20043;-65
2021/01/15 08:03:05;;;;;;;34.67;22.50;;;;;;;5.04;100.00;103184.69;5052511;28;20048;-65
2021/01/15 08:05:31;;;;;;;38.40;22.08;;;;;;;5.02;100.00;103183.97;5052209;28;20045;-65
2021/01/15 08:08:10;;;;;;;35.90;22.85;;;;;;;4.99;100.00;103181.56;5070234;28;20124;-65
2021/01/15 08:10:46;;;;;;;35.55;23.08;;;;;;;4.99;100.00;103173.44;5070110;28;20178;-65
2021/01/15 08:13:23;;;;;;;39.55;22.52;;;;;;;4.99;100.00;103178.84;5052152;28;20043;-65
2021/01/15 08:15:50;;;;;;;36.38;22.15;;;;;;;4.98;100.00;103181.69;5070263;28;20028;-65
2021/01/15 08:18:16;;;;;;;38.70;23.02;;;;;;;4.96;100.00;103184.56;5052549;28;20485;-65
2021/01/15 08:21:02;;;;;;;40.28;23.25;;;;;;;4.94;100.00;103183.84;5069894;28;20041;-65
2021/01/15 08:23:28;;;;;;;38.42;23.25;;;;;;;4.92;100.00;103185.00;5069464;28;20505;-65
2021/01/15 08:26:11;;;;;;;39.15;22.38;;;;;;;4.90;100.00;103197.84;5070051;28;20040;-65
2021/01/15 08:28:37;;;;;;;34.75;21.98;;;;;;;4.88;100.00;103197.16;5069895;28;20128;-65
2021/01/15 08:31:08;;;;;;;36.00;21.63;;;;;;;4.86;100.00;103205.41;5070401;28;20131;-65
2021/01/15 08:33:34;;;;;;;36.45;22.33;;;;;;;4.88;100.00;103202.56;5070176;28;20124;-65
2021/01/15 08:36:02;;;;;;;37.25;21.88;;;;;;;4.88;100.00;103203.41;5069789;28;20394;-65
2021/01/15 08:38:36;;;;;;;35.95;22.88;;;;;;;4.91;100.00;103204.97;5071971;28;20090;-65
2021/01/15 08:41:13;;;;;;;35.80;21.67;;;;;;;4.92;100.00;103215.66;5073601;28;20036;-65
2021/01/15 08:43:39;;;;;;;39.25;22.23;;;;;;;4.92;100.00;103214.81;5073374;28;20394;-65
2021/01/15 08:46:05;;;;;;;39.35;21.40;;;;;;;4.93;100.00;103217.34;5073580;28;20039;-65
2021/01/15 08:48:31;;;;;;;37.63;21.27;;;;;;;4.95;100.00;103228.03;5073700;28;20033;-65
2021/01/15 08:51:07;;;;;;;42.55;22.42;;;;;;;4.96;100.00;103238.72;5073332;28;20037;-65
2021/01/15 08:53:43;;;;;;;37.17;21.27;;;;;;;4.97;100.00;103234.16;5073292;28;20047;-65
2021/01/15 08:56:13;;;;;;;32.95;21.10;;;;;;;4.97;100.00;103229.59;5073213;28;20406;-65
2021/01/15 08:58:49;;;;;;;33.55;21.95;;;;;;;4.99;100.00;103243.84;5055126;28;20043;-65
2021/01/15 09:01:30;;;;;;;36.97;22.15;;;;;;;5.02;100.00;103248.97;5073259;28;20032;-65
2021/01/15 09:04:00;;;;;;;38.83;21.70;;;;;;;5.05;100.00;103254.13;5073301;28;20036;-65
2021/01/15 09:06:27;;;;;;;37.65;22.17;;;;;;;5.09;100.00;103260.94;5072969;28;20025;-65
2021/01/15 09:08:58;;;;;;;34.75;22.75;;;;;;;5.11;100.00;103272.47;5073366;28;20101;-65
2021/01/15 09:11:29;;;;;;;31.63;21.48;;;;;;;5.14;100.00;103274.88;5073033;28;20049;-65
2021/01/15 09:13:56;;;;;;;36.20;22.38;;;;;;;5.18;100.00;103274.59;5072819;28;20557;-65
2021/01/15 09:16:23;;;;;;;38.45;23.33;;;;;;;5.23;100.00;103277.75;5072898;28;20036;-65
2021/01/15 09:18:53;;;;;;;35.40;22.15;;;;;;;5.26;100.00;103277.44;5072481;28;20056;-65
2021/01/15 09:21:20;;;;;;;37.33;23.17;;;;;;;5.29;100.00;103282.56;5063157;28;20036;-65
2021/01/15 09:23:47;;;;;;;39.90;23.35;;;;;;;5.31;100.00;103285.97;5071967;28;20564;-65
2021/01/15 09:26:13;;;;;;;37.05;23.13;;;;;;;5.31;100.00;103283.25;5072256;28;20332;-65
2021/01/15 09:28:38;;;;;;;36.05;22.75;;;;;;;5.33;100.00;103300.22;5072308;28;20093;-65
2021/01/15 09:31:04;;;;;;;41.70;24.08;;;;;;;5.36;100.00;103305.34;5071663;28;20506;-65
2021/01/15 09:33:30;;;;;;;41.53;24.98;;;;;;;5.33;100.00;103311.06;5072074;28;20048;-63
2021/01/15 09:35:56;;;;;;;43.38;25.60;;;;;;;5.33;100.00;103305.63;5071258;28;20082;-62
2021/01/15 09:38:22;;;;;;;37.90;23.52;;;;;;;5.31;100.00;103307.66;5072410;28;20036;-65
2021/01/15 09:40:47;;;;;;;42.38;23.75;;;;;;;5.29;100.00;103304.22;5072189;28;20038;-65
2021/01/15 09:43:13;;;;;;;37.65;23.08;;;;;;;5.30;100.00;103300.53;5071552;28;20037;-64
2021/01/15 09:45:38;;;;;;;42.58;24.58;;;;;;;5.32;100.00;103301.22;5072163;28;20440;-65
2021/01/15 09:48:08;;;;;;;44.65;26.67;;;;;;;5.37;100.00;103312.47;5072391;28;20033;-67
2021/01/15 09:50:33;;;;;;;47.28;27.77;;;;;;;5.42;100.00;103313.75;5071978;28;20044;-66
2021/01/15 09:52:59;;;;;;;44.67;26.48;;;;;;;5.45;100.00;103318.03;5053935;28;20040;-65
2021/01/15 09:55:25;;;;;;;58.47;27.83;;;;;;;5.49;100.00;103322.13;5072254;28;20089;-65
2021/01/15 09:57:50;;;;;;;46.92;28.25;;;;;;;5.50;100.00;103314.84;5071848;28;20509;-65
2021/01/15 10:00:16;;;;;;;47.40;28.83;;;;;;;5.53;100.00;103304.56;5071608;28;20424;-65
2021/01/15 10:02:42;;;;;;;45.80;28.92;;;;;;;5.58;100.00;103313.13;5071960;28;20077;-65
2021/01/15 10:05:08;;;;;;;45.60;27.13;;;;;;;5.61;100.00;103310.13;5071477;28;20417;-65
2021/01/15 10:07:34;;;;;;;43.38;26.35;;;;;;;5.65;100.00;103313.38;5071526;28;20371;-65
2021/01/15 10:10:00;;;;;;;40.00;24.23;;;;;;;5.67;100.00;103319.50;5071692;28;20494;-66
2021/01/15 10:12:25;;;;;;;40.60;23.33;;;;;;;5.70;100.00;103325.47;5071491;28;20036;-65
2021/01/15 10:14:51;;;;;;;36.97;22.88;;;;;;;5.75;100.00;103316.91;5071314;28;20190;-70
2021/01/15 10:17:17;;;;;;;33.92;21.70;;;;;;;5.80;100.00;103313.75;5071350;28;20052;-67
2021/01/15 10:19:42;;;;;;;32.33;21.25;;;;;;;5.87;100.00;103320.25;5071381;28;20066;-67
2021/01/15 10:22:08;;;;;;;34.25;22.20;;;;;;;5.92;100.00;103323.44;5071054;28;20033;-67
2021/01/15 10:24:34;;;;;;;32.60;21.42;;;;;;;5.99;100.00;103319.09;5071250;28;20490;-66
2021/01/15 10:26:59;;;;;;;29.42;19.17;;;;;;;6.02;100.00;103319.66;5071206;28;20040;-67
2021/01/15 10:29:25;;;;;;;29.42;19.50;;;;;;;6.05;100.00;103324.75;5071285;28;20043;-67
2021/01/15 10:31:54;;;;;;;30.63;19.67;;;;;;;6.05;100.00;103324.75;5071760;28;20313;-66
2021/01/15 10:34:24;;;;;;;28.75;19.38;;;;;;;6.05;100.00;103327.47;5052805;28;20445;-66
2021/01/15 10:36:50;;;;;;;30.08;19.35;;;;;;;6.08;100.00;103323.63;5052989;28;20044;-67
2021/01/15 10:39:17;;;;;;;34.42;20.48;;;;;;;6.11;100.00;103317.91;5070989;28;20071;-67
2021/01/15 10:41:45;;;;;;;32.53;20.15;;;;;;;6.14;100.00;103325.72;5070840;28;20042;-67
2021/01/15 10:44:14;;;;;;;31.33;20.35;;;;;;;6.17;100.00;103333.56;5071020;28;20477;-67
2021/01/15 10:46:42;;;;;;;32.45;20.23;;;;;;;6.20;100.00;103324.25;5071148;28;20467;-67
2021/01/15 10:49:12;;;;;;;33.35;20.92;;;;;;;6.21;100.00;103332.25;5070648;28;20044;-67
2021/01/15 10:51:45;;;;;;;32.42;21.42;;;;;;;6.22;100.00;103331.22;5071015;28;20044;-67
2021/01/15 10:54:11;;;;;;;32.58;21.08;;;;;;;6.26;100.00;103332.66;5071278;28;20455;-66
2021/01/15 10:56:38;;;;;;;35.58;21.50;;;;;;;6.32;100.00;103342.91;5070607;28;20044;-67
2021/01/15 10:59:05;;;;;;;30.90;20.67;;;;;;;6.38;100.00;103341.41;5070783;28;20444;-66
2021/01/15 11:01:38;;;;;;;34.58;22.33;;;;;;;6.43;100.00;103340.97;5070069;28;20028;-67
2021/01/15 11:04:07;;;;;;;29.77;19.38;;;;;;;6.44;100.00;103345.41;5070507;28;20067;-66
2021/01/15 11:06:41;;;;;;;27.58;18.55;;;;;;;6.48;100.00;103349.50;5066563;28;20483;-66
2021/01/15 11:09:09;;;;;;;30.57;19.37;;;;;;;6.49;100.00;103343.91;5070432;28;20055;-67
2021/01/15 11:11:34;;;;;;;25.60;18.15;;;;;;;6.50;100.00;103345.63;5070763;28;20386;-67
2021/01/15 11:14:00;;;;;;;29.13;19.88;;;;;;;6.50;100.00;103344.78;5070328;28;20035;-66
2021/01/15 11:16:26;;;;;;;25.77;18.30;;;;;;;6.51;100.00;103336.47;5070230;28;20680;-67
2021/01/15 11:18:55;;;;;;;27.95;18.38;;;;;;;6.54;100.00;103346.16;5070283;28;20028;-67
2021/01/15 11:21:28;;;;;;;29.05;17.60;;;;;;;6.53;100.00;103339.88;5070792;28;20101;-67
2021/01/15 11:23:53;;;;;;;26.02;18.15;;;;;;;6.57;100.00;103346.72;5070138;28;20044;-67
2021/01/15 11:26:28;;;;;;;31.63;18.85;;;;;;;6.60;100.00;103356.44;5070031;28;20078;-66